Terminal Aerodrome Forecast
Issued by NWS

Home | Current Version | Previous Version | Text Only | Print | Product List | Glossary On
Versions: 1 2 3 4 5 6 7 8 9 10 11 12 13 14 15
000
FTUS45 KRIW 280900 AAA
TAFLND
TAF AMD
KLND 280913Z 2809/2906 29018G30KT P6SM FEW140 SCT200 WS017/26050KT
     FM290200 26020G38KT P6SM FEW140 SCT200=

USA.gov is the U.S. government's official web portal to all federal, state and local government web resources and services.